Paisley, United Kingdom

11:08 AM BST on May 05, 2015 (GMT +0100)
IRENFREW4 | | Change Station
CLOSE
Current Station
Personal Weather Station
Location: Inchinnan, RENFREW
Elevation: 0 ft
Nearby Weather Stations

Elev 0 ft 55.89 °N, 4.43 °W | Updated 3 minutes ago

Light Rain
Light Rain
48.9 °F
Feels Like 48 °F
N
4.0
Wind Variable Wind from SE
Gusts 10.0 mph

Today
High -- | Low -- °F
--% Chance of Precip.
Yesterday
High -- | Low -- °F
Precip. -- in
5:26 AM 9:03 PM
Full, 98% visible
Pressure 29.09 in
Visibility 4.3 miles
Clouds Mostly Cloudy 1200 ft
Windchill 48 °F
Dew Point 46 °F
Humidity 90%
Rainfall 0.02 in
Snow Depth Not available.
UV 0.6 out of 12
Pollen Not available.
Air Quality Not available.
Flu Activity Not available.
METAR EGPF 050950Z 06013KT 7000 -RA BKN012TCU 09/07 Q0985

More Conditions Fewer Conditions

Pressure 29.09 in
Visibility 4.3 miles
Clouds Mostly Cloudy 1200 ft
Windchill 48 °F
Dew Point 46 °F
Humidity 90%
Rainfall 0.02 in
Snow Depth Not available.
UV 0.6 out of 12
Pollen Not available.
Air Quality Not available.
Flu Activity Not available.
METAR EGPF 050950Z 06013KT 7000 -RA BKN012TCU 09/07 Q0985

More Conditions Fewer Conditions

10-Day Weather Forecast

Almanac

Astronomy

May. 05, 2015 Rise Set
Actual Time
Civil Twilight
Nautical Twilight
Astronomical Twilight
Moon
Length of Visible Light
Length of Day
Tomorrow will be .
, % of the Moon is Illuminated

Today's Extremes

Country Highs Country Lows

Community

WunderPhotos

Upload Photos

1,818,825 photos uploaded!

WunderBlogs® & News

Nearby

Air Quality

  Air Quality AQ Index Pollutant
Not available.

Snow Depth

Station Depth Elevation

Earthquake Activity

City Distance Mag. Time & Date
Minimum magnitude displayed is 2.5.

Coastal Water Temperatures

Place Temperature

Stations

Nearby Weather Stations

Station Location Temp. Windchill Dew Point Humidity Wind Precip. Elev Updated Type